sensor_id;sensor_type;location;lat;lon;timestamp;P1;durP1;ratioP1;P2;durP2;ratioP2
42598;SDS011;28225;42.714;23.860;2024-02-23T00:00:11;6.83;;;5.20;;
42598;SDS011;28225;42.714;23.860;2024-02-23T00:00:27;6.63;;;5.03;;
42598;SDS011;28225;42.714;23.860;2024-02-23T00:00:43;7.10;;;5.37;;
42598;SDS011;28225;42.714;23.860;2024-02-23T00:00:58;7.43;;;6.00;;
42598;SDS011;28225;42.714;23.860;2024-02-23T00:01:13;8.13;;;6.27;;
42598;SDS011;28225;42.714;23.860;2024-02-23T00:01:29;9.40;;;6.55;;
42598;SDS011;28225;42.714;23.860;2024-02-23T00:01:45;9.30;;;7.15;;
42598;SDS011;28225;42.714;23.860;2024-02-23T00:02:00;8.87;;;7.30;;
42598;SDS011;28225;42.714;23.860;2024-02-23T00:02:16;10.45;;;7.60;;
42598;SDS011;28225;42.714;23.860;2024-02-23T00:02:31;10.30;;;7.60;;
42598;SDS011;28225;42.714;23.860;2024-02-23T00:02:47;8.83;;;6.87;;
42598;SDS011;28225;42.714;23.860;2024-02-23T00:03:02;7.88;;;6.40;;
42598;SDS011;28225;42.714;23.860;2024-02-23T00:03:18;8.37;;;6.83;;
42598;SDS011;28225;42.714;23.860;2024-02-23T00:03:33;9.70;;;7.57;;
42598;SDS011;28225;42.714;23.860;2024-02-23T00:03:51;9.55;;;7.95;;
42598;SDS011;28225;42.714;23.860;2024-02-23T00:04:06;10.57;;;8.40;;
42598;SDS011;28225;42.714;23.860;2024-02-23T00:04:22;10.30;;;7.75;;
42598;SDS011;28225;42.714;23.860;2024-02-23T00:04:38;7.95;;;6.75;;
42598;SDS011;28225;42.714;23.860;2024-02-23T00:04:53;7.87;;;6.30;;
42598;SDS011;28225;42.714;23.860;2024-02-23T00:05:09;8.27;;;6.30;;
42598;SDS011;28225;42.714;23.860;2024-02-23T00:05:24;7.95;;;6.45;;
42598;SDS011;28225;42.714;23.860;2024-02-23T00:05:40;7.50;;;6.07;;
42598;SDS011;28225;42.714;23.860;2024-02-23T00:05:55;7.25;;;5.88;;
42598;SDS011;28225;42.714;23.860;2024-02-23T00:06:10;7.17;;;6.13;;
42598;SDS011;28225;42.714;23.860;2024-02-23T00:06:27;6.68;;;5.70;;
42598;SDS011;28225;42.714;23.860;2024-02-23T00:06:42;5.95;;;5.18;;
42598;SDS011;28225;42.714;23.860;2024-02-23T00:06:58;5.47;;;4.37;;
42598;SDS011;28225;42.714;23.860;2024-02-23T00:07:13;5.07;;;3.90;;
42598;SDS011;28225;42.714;23.860;2024-02-23T00:07:29;3.90;;;3.50;;
42598;SDS011;28225;42.714;23.860;2024-02-23T00:07:44;3.60;;;3.30;;
42598;SDS011;28225;42.714;23.860;2024-02-23T00:08:00;4.00;;;3.60;;
42598;SDS011;28225;42.714;23.860;2024-02-23T00:08:15;4.80;;;3.70;;
42598;SDS011;28225;42.714;23.860;2024-02-23T00:08:30;4.50;;;3.50;;
42598;SDS011;28225;42.714;23.860;2024-02-23T00:08:46;3.80;;;3.30;;
42598;SDS011;28225;42.714;23.860;2024-02-23T00:09:01;4.13;;;3.60;;
42598;SDS011;28225;42.714;23.860;2024-02-23T00:09:17;4.40;;;4.00;;
42598;SDS011;28225;42.714;23.860;2024-02-23T00:09:32;5.18;;;3.90;;
42598;SDS011;28225;42.714;23.860;2024-02-23T00:09:48;5.63;;;3.87;;
42598;SDS011;28225;42.714;23.860;2024-02-23T00:10:03;4.60;;;3.88;;
42598;SDS011;28225;42.714;23.860;2024-02-23T00:10:19;3.80;;;3.50;;
42598;SDS011;28225;42.714;23.860;2024-02-23T00:10:35;4.13;;;3.30;;
42598;SDS011;28225;42.714;23.860;2024-02-23T00:10:50;4.55;;;3.50;;
42598;SDS011;28225;42.714;23.860;2024-02-23T00:11:05;3.90;;;3.50;;
42598;SDS011;28225;42.714;23.860;2024-02-23T00:11:21;4.00;;;3.50;;
42598;SDS011;28225;42.714;23.860;2024-02-23T00:11:42;4.15;;;3.58;;
42598;SDS011;28225;42.714;23.860;2024-02-23T00:12:02;4.25;;;3.60;;
42598;SDS011;28225;42.714;23.860;2024-02-23T00:12:18;3.87;;;3.47;;
42598;SDS011;28225;42.714;23.860;2024-02-23T00:12:33;3.97;;;3.67;;
42598;SDS011;28225;42.714;23.860;2024-02-23T00:12:49;4.17;;;3.87;;
42598;SDS011;28225;42.714;23.860;2024-02-23T00:13:04;4.35;;;3.95;;
42598;SDS011;28225;42.714;23.860;2024-02-23T00:13:20;4.03;;;3.43;;
42598;SDS011;28225;42.714;23.860;2024-02-23T00:13:35;3.75;;;3.20;;
42598;SDS011;28225;42.714;23.860;2024-02-23T00:13:51;3.80;;;3.50;;
42598;SDS011;28225;42.714;23.860;2024-02-23T00:14:06;3.70;;;3.40;;
42598;SDS011;28225;42.714;23.860;2024-02-23T00:14:22;3.80;;;3.40;;
42598;SDS011;28225;42.714;23.860;2024-02-23T00:14:38;4.17;;;3.60;;
42598;SDS011;28225;42.714;23.860;2024-02-23T00:14:53;3.47;;;3.13;;
42598;SDS011;28225;42.714;23.860;2024-02-23T00:15:09;3.30;;;3.00;;
42598;SDS011;28225;42.714;23.860;2024-02-23T00:15:24;3.58;;;3.28;;
42598;SDS011;28225;42.714;23.860;2024-02-23T00:15:40;3.73;;;3.40;;
42598;SDS011;28225;42.714;23.860;2024-02-23T00:15:55;3.80;;;3.40;;
42598;SDS011;28225;42.714;23.860;2024-02-23T00:16:11;3.73;;;3.43;;
42598;SDS011;28225;42.714;23.860;2024-02-23T00:16:26;3.80;;;3.50;;
42598;SDS011;28225;42.714;23.860;2024-02-23T00:16:42;3.57;;;3.27;;
42598;SDS011;28225;42.714;23.860;2024-02-23T00:16:57;3.90;;;3.47;;
42598;SDS011;28225;42.714;23.860;2024-02-23T00:17:13;3.97;;;3.47;;
42598;SDS011;28225;42.714;23.860;2024-02-23T00:17:29;3.40;;;3.10;;
42598;SDS011;28225;42.714;23.860;2024-02-23T00:17:44;3.67;;;3.28;;
42598;SDS011;28225;42.714;23.860;2024-02-23T00:18:00;3.93;;;3.53;;
42598;SDS011;28225;42.714;23.860;2024-02-23T00:18:18;3.65;;;3.33;;
42598;SDS011;28225;42.714;23.860;2024-02-23T00:18:33;3.83;;;3.33;;
42598;SDS011;28225;42.714;23.860;2024-02-23T00:18:49;4.27;;;3.30;;
42598;SDS011;28225;42.714;23.860;2024-02-23T00:19:04;3.90;;;3.05;;
42598;SDS011;28225;42.714;23.860;2024-02-23T00:19:20;3.70;;;3.10;;
42598;SDS011;28225;42.714;23.860;2024-02-23T00:19:36;3.70;;;3.30;;
42598;SDS011;28225;42.714;23.860;2024-02-23T00:19:51;3.85;;;3.45;;
42598;SDS011;28225;42.714;23.860;2024-02-23T00:20:08;3.90;;;3.42;;
42598;SDS011;28225;42.714;23.860;2024-02-23T00:20:27;3.75;;;3.28;;
42598;SDS011;28225;42.714;23.860;2024-02-23T00:20:42;3.72;;;3.35;;
42598;SDS011;28225;42.714;23.860;2024-02-23T00:20:58;3.60;;;3.20;;
42598;SDS011;28225;42.714;23.860;2024-02-23T00:21:14;3.50;;;3.10;;
42598;SDS011;28225;42.714;23.860;2024-02-23T00:21:29;3.95;;;3.03;;
42598;SDS011;28225;42.714;23.860;2024-02-23T00:21:45;3.90;;;3.03;;
42598;SDS011;28225;42.714;23.860;2024-02-23T00:22:04;3.33;;;3.03;;
42598;SDS011;28225;42.714;23.860;2024-02-23T00:22:20;3.80;;;3.40;;
42598;SDS011;28225;42.714;23.860;2024-02-23T00:22:35;3.72;;;3.30;;
42598;SDS011;28225;42.714;23.860;2024-02-23T00:22:51;3.33;;;3.00;;
42598;SDS011;28225;42.714;23.860;2024-02-23T00:23:06;3.63;;;3.30;;
42598;SDS011;28225;42.714;23.860;2024-02-23T00:23:22;3.67;;;3.37;;
42598;SDS011;28225;42.714;23.860;2024-02-23T00:23:37;3.57;;;3.27;;
42598;SDS011;28225;42.714;23.860;2024-02-23T00:23:53;3.60;;;3.30;;
42598;SDS011;28225;42.714;23.860;2024-02-23T00:24:08;3.80;;;3.10;;
42598;SDS011;28225;42.714;23.860;2024-02-23T00:24:24;3.47;;;3.00;;
42598;SDS011;28225;42.714;23.860;2024-02-23T00:24:40;3.55;;;2.95;;
42598;SDS011;28225;42.714;23.860;2024-02-23T00:24:56;3.90;;;2.90;;
42598;SDS011;28225;42.714;23.860;2024-02-23T00:25:11;3.73;;;3.17;;
42598;SDS011;28225;42.714;23.860;2024-02-23T00:25:26;3.42;;;3.13;;
42598;SDS011;28225;42.714;23.860;2024-02-23T00:25:42;3.30;;;3.00;;
42598;SDS011;28225;42.714;23.860;2024-02-23T00:25:57;2.95;;;2.70;;
42598;SDS011;28225;42.714;23.860;2024-02-23T00:26:13;2.90;;;2.60;;
42598;SDS011;28225;42.714;23.860;2024-02-23T00:26:28;3.30;;;3.00;;
42598;SDS011;28225;42.714;23.860;2024-02-23T00:26:44;3.33;;;3.03;;
42598;SDS011;28225;42.714;23.860;2024-02-23T00:27:00;3.42;;;3.13;;
42598;SDS011;28225;42.714;23.860;2024-02-23T00:27:15;3.55;;;3.25;;
42598;SDS011;28225;42.714;23.860;2024-02-23T00:27:31;3.60;;;3.30;;
42598;SDS011;28225;42.714;23.860;2024-02-23T00:27:46;3.72;;;3.38;;
42598;SDS011;28225;42.714;23.860;2024-02-23T00:28:02;3.67;;;3.37;;
42598;SDS011;28225;42.714;23.860;2024-02-23T00:28:17;3.50;;;3.20;;
42598;SDS011;28225;42.714;23.860;2024-02-23T00:28:33;3.33;;;3.03;;
42598;SDS011;28225;42.714;23.860;2024-02-23T00:28:48;3.30;;;3.00;;
42598;SDS011;28225;42.714;23.860;2024-02-23T00:29:04;3.40;;;3.07;;
42598;SDS011;28225;42.714;23.860;2024-02-23T00:29:19;4.43;;;3.30;;
42598;SDS011;28225;42.714;23.860;2024-02-23T00:29:36;4.35;;;3.22;;
42598;SDS011;28225;42.714;23.860;2024-02-23T00:29:52;4.50;;;3.03;;
42598;SDS011;28225;42.714;23.860;2024-02-23T00:30:07;4.40;;;3.10;;
42598;SDS011;28225;42.714;23.860;2024-02-23T00:30:23;3.75;;;3.42;;
42598;SDS011;28225;42.714;23.860;2024-02-23T00:30:38;4.17;;;3.77;;
42598;SDS011;28225;42.714;23.860;2024-02-23T00:30:54;5.40;;;3.78;;
42598;SDS011;28225;42.714;23.860;2024-02-23T00:31:09;6.53;;;4.00;;
42598;SDS011;28225;42.714;23.860;2024-02-23T00:31:25;5.27;;;4.17;;
42598;SDS011;28225;42.714;23.860;2024-02-23T00:31:40;4.27;;;3.87;;
42598;SDS011;28225;42.714;23.860;2024-02-23T00:31:56;4.00;;;3.58;;
42598;SDS011;28225;42.714;23.860;2024-02-23T00:32:11;4.07;;;3.47;;
42598;SDS011;28225;42.714;23.860;2024-02-23T00:32:27;3.90;;;3.45;;
42598;SDS011;28225;42.714;23.860;2024-02-23T00:32:43;3.70;;;3.30;;
42598;SDS011;28225;42.714;23.860;2024-02-23T00:32:58;4.83;;;3.20;;
42598;SDS011;28225;42.714;23.860;2024-02-23T00:33:14;4.80;;;3.20;;
42598;SDS011;28225;42.714;23.860;2024-02-23T00:33:29;4.00;;;3.27;;
42598;SDS011;28225;42.714;23.860;2024-02-23T00:33:44;3.53;;;3.17;;
42598;SDS011;28225;42.714;23.860;2024-02-23T00:34:00;4.23;;;3.60;;
42598;SDS011;28225;42.714;23.860;2024-02-23T00:34:15;4.37;;;3.77;;
42598;SDS011;28225;42.714;23.860;2024-02-23T00:34:31;4.00;;;3.60;;
42598;SDS011;28225;42.714;23.860;2024-02-23T00:34:47;4.40;;;3.90;;
42598;SDS011;28225;42.714;23.860;2024-02-23T00:35:02;4.20;;;3.73;;
42598;SDS011;28225;42.714;23.860;2024-02-23T00:35:18;3.78;;;3.40;;
42598;SDS011;28225;42.714;23.860;2024-02-23T00:35:34;3.72;;;3.42;;
42598;SDS011;28225;42.714;23.860;2024-02-23T00:35:49;3.60;;;3.30;;
42598;SDS011;28225;42.714;23.860;2024-02-23T00:36:05;3.53;;;3.17;;
42598;SDS011;28225;42.714;23.860;2024-02-23T00:36:20;3.60;;;3.17;;
42598;SDS011;28225;42.714;23.860;2024-02-23T00:36:38;3.42;;;3.10;;
42598;SDS011;28225;42.714;23.860;2024-02-23T00:36:57;3.53;;;3.10;;
42598;SDS011;28225;42.714;23.860;2024-02-23T00:37:12;4.30;;;3.40;;
42598;SDS011;28225;42.714;23.860;2024-02-23T00:37:27;4.32;;;3.42;;
42598;SDS011;28225;42.714;23.860;2024-02-23T00:37:43;3.90;;;3.30;;
42598;SDS011;28225;42.714;23.860;2024-02-23T00:37:58;3.50;;;3.20;;
42598;SDS011;28225;42.714;23.860;2024-02-23T00:38:14;3.65;;;3.35;;
42598;SDS011;28225;42.714;23.860;2024-02-23T00:38:29;3.67;;;3.37;;
42598;SDS011;28225;42.714;23.860;2024-02-23T00:38:45;3.78;;;3.40;;
42598;SDS011;28225;42.714;23.860;2024-02-23T00:39:00;4.07;;;3.67;;
42598;SDS011;28225;42.714;23.860;2024-02-23T00:39:15;4.78;;;3.80;;
42598;SDS011;28225;42.714;23.860;2024-02-23T00:39:31;4.67;;;3.67;;
42598;SDS011;28225;42.714;23.860;2024-02-23T00:39:47;3.83;;;3.42;;
42598;SDS011;28225;42.714;23.860;2024-02-23T00:40:03;3.60;;;3.22;;
42598;SDS011;28225;42.714;23.860;2024-02-23T00:40:19;4.10;;;3.50;;
42598;SDS011;28225;42.714;23.860;2024-02-23T00:40:35;4.00;;;3.50;;
42598;SDS011;28225;42.714;23.860;2024-02-23T00:40:50;3.97;;;3.50;;
42598;SDS011;28225;42.714;23.860;2024-02-23T00:41:05;4.00;;;3.60;;
42598;SDS011;28225;42.714;23.860;2024-02-23T00:41:21;3.83;;;3.40;;
42598;SDS011;28225;42.714;23.860;2024-02-23T00:41:37;3.95;;;3.30;;
42598;SDS011;28225;42.714;23.860;2024-02-23T00:41:52;4.07;;;3.60;;
42598;SDS011;28225;42.714;23.860;2024-02-23T00:42:07;3.73;;;3.40;;
42598;SDS011;28225;42.714;23.860;2024-02-23T00:42:23;4.00;;;3.08;;
42598;SDS011;28225;42.714;23.860;2024-02-23T00:42:38;4.30;;;3.40;;
42598;SDS011;28225;42.714;23.860;2024-02-23T00:42:54;4.07;;;3.67;;
42598;SDS011;28225;42.714;23.860;2024-02-23T00:43:10;4.03;;;3.63;;
42598;SDS011;28225;42.714;23.860;2024-02-23T00:43:25;3.80;;;3.38;;
42598;SDS011;28225;42.714;23.860;2024-02-23T00:43:40;3.40;;;3.03;;
42598;SDS011;28225;42.714;23.860;2024-02-23T00:43:56;3.38;;;3.08;;
42598;SDS011;28225;42.714;23.860;2024-02-23T00:44:12;3.35;;;3.05;;
42598;SDS011;28225;42.714;23.860;2024-02-23T00:44:27;3.23;;;2.93;;
42598;SDS011;28225;42.714;23.860;2024-02-23T00:44:43;3.58;;;3.20;;
42598;SDS011;28225;42.714;23.860;2024-02-23T00:44:58;4.17;;;3.23;;
42598;SDS011;28225;42.714;23.860;2024-02-23T00:45:13;3.50;;;3.00;;
42598;SDS011;28225;42.714;23.860;2024-02-23T00:45:29;3.35;;;3.05;;
42598;SDS011;28225;42.714;23.860;2024-02-23T00:45:44;3.40;;;3.10;;
42598;SDS011;28225;42.714;23.860;2024-02-23T00:46:00;3.90;;;3.13;;
42598;SDS011;28225;42.714;23.860;2024-02-23T00:46:16;3.65;;;3.33;;
42598;SDS011;28225;42.714;23.860;2024-02-23T00:46:31;3.30;;;3.00;;
42598;SDS011;28225;42.714;23.860;2024-02-23T00:46:47;3.20;;;2.90;;
42598;SDS011;28225;42.714;23.860;2024-02-23T00:47:02;3.83;;;3.20;;
42598;SDS011;28225;42.714;23.860;2024-02-23T00:47:19;3.72;;;3.13;;
42598;SDS011;28225;42.714;23.860;2024-02-23T00:47:34;3.10;;;2.80;;
42598;SDS011;28225;42.714;23.860;2024-02-23T00:47:50;3.25;;;2.92;;
42598;SDS011;28225;42.714;23.860;2024-02-23T00:48:06;3.33;;;3.03;;
42598;SDS011;28225;42.714;23.860;2024-02-23T00:48:21;3.30;;;3.00;;
42598;SDS011;28225;42.714;23.860;2024-02-23T00:48:37;3.25;;;2.95;;
42598;SDS011;28225;42.714;23.860;2024-02-23T00:48:52;5.43;;;3.20;;
42598;SDS011;28225;42.714;23.860;2024-02-23T00:49:08;5.40;;;3.40;;
42598;SDS011;28225;42.714;23.860;2024-02-23T00:49:23;3.90;;;3.42;;
42598;SDS011;28225;42.714;23.860;2024-02-23T00:49:39;4.28;;;3.47;;
42598;SDS011;28225;42.714;23.860;2024-02-23T00:49:54;3.87;;;3.47;;
42598;SDS011;28225;42.714;23.860;2024-02-23T00:50:10;3.67;;;3.37;;
42598;SDS011;28225;42.714;23.860;2024-02-23T00:50:25;3.80;;;3.42;;
42598;SDS011;28225;42.714;23.860;2024-02-23T00:50:41;4.13;;;3.50;;
42598;SDS011;28225;42.714;23.860;2024-02-23T00:50:57;3.95;;;3.40;;
42598;SDS011;28225;42.714;23.860;2024-02-23T00:51:12;4.87;;;3.87;;
42598;SDS011;28225;42.714;23.860;2024-02-23T00:51:28;5.78;;;4.45;;
42598;SDS011;28225;42.714;23.860;2024-02-23T00:51:43;6.13;;;4.30;;
42598;SDS011;28225;42.714;23.860;2024-02-23T00:51:59;5.40;;;4.17;;
42598;SDS011;28225;42.714;23.860;2024-02-23T00:52:15;4.90;;;4.20;;
42598;SDS011;28225;42.714;23.860;2024-02-23T00:52:31;5.38;;;4.07;;
42598;SDS011;28225;42.714;23.860;2024-02-23T00:52:47;5.05;;;3.88;;
42598;SDS011;28225;42.714;23.860;2024-02-23T00:53:03;4.40;;;4.00;;
42598;SDS011;28225;42.714;23.860;2024-02-23T00:53:18;4.57;;;4.03;;
42598;SDS011;28225;42.714;23.860;2024-02-23T00:53:35;4.28;;;3.88;;
42598;SDS011;28225;42.714;23.860;2024-02-23T00:53:50;4.60;;;4.20;;
42598;SDS011;28225;42.714;23.860;2024-02-23T00:54:06;4.70;;;4.20;;
42598;SDS011;28225;42.714;23.860;2024-02-23T00:54:22;4.68;;;3.85;;
42598;SDS011;28225;42.714;23.860;2024-02-23T00:54:38;4.68;;;3.80;;
42598;SDS011;28225;42.714;23.860;2024-02-23T00:54:53;4.70;;;3.90;;
42598;SDS011;28225;42.714;23.860;2024-02-23T00:55:09;4.50;;;4.00;;
42598;SDS011;28225;42.714;23.860;2024-02-23T00:55:24;4.10;;;3.70;;
42598;SDS011;28225;42.714;23.860;2024-02-23T00:55:41;4.35;;;3.95;;
42598;SDS011;28225;42.714;23.860;2024-02-23T00:55:57;4.67;;;4.17;;
42598;SDS011;28225;42.714;23.860;2024-02-23T00:56:12;4.68;;;4.18;;
42598;SDS011;28225;42.714;23.860;2024-02-23T00:56:28;4.67;;;4.00;;
42598;SDS011;28225;42.714;23.860;2024-02-23T00:56:43;4.70;;;3.83;;
42598;SDS011;28225;42.714;23.860;2024-02-23T00:57:00;4.43;;;3.97;;
42598;SDS011;28225;42.714;23.860;2024-02-23T00:57:15;4.50;;;4.10;;
42598;SDS011;28225;42.714;23.860;2024-02-23T00:57:33;4.75;;;4.25;;
42598;SDS011;28225;42.714;23.860;2024-02-23T00:57:50;4.45;;;3.92;;
42598;SDS011;28225;42.714;23.860;2024-02-23T00:58:06;4.53;;;3.80;;
42598;SDS011;28225;42.714;23.860;2024-02-23T00:58:21;4.50;;;3.88;;
42598;SDS011;28225;42.714;23.860;2024-02-23T00:58:36;4.70;;;4.10;;
42598;SDS011;28225;42.714;23.860;2024-02-23T00:58:52;4.43;;;3.90;;
42598;SDS011;28225;42.714;23.860;2024-02-23T00:59:07;4.30;;;3.90;;
42598;SDS011;28225;42.714;23.860;2024-02-23T00:59:23;4.37;;;3.97;;
42598;SDS011;28225;42.714;23.860;2024-02-23T00:59:38;4.15;;;3.80;;
42598;SDS011;28225;42.714;23.860;2024-02-23T00:59:53;4.37;;;3.97;;
42598;SDS011;28225;42.714;23.860;2024-02-23T01:00:09;4.18;;;3.78;;
42598;SDS011;28225;42.714;23.860;2024-02-23T01:00:25;3.80;;;3.37;;
42598;SDS011;28225;42.714;23.860;2024-02-23T01:00:40;3.80;;;3.37;;
42598;SDS011;28225;42.714;23.860;2024-02-23T01:00:56;4.25;;;3.67;;
42598;SDS011;28225;42.714;23.860;2024-02-23T01:01:12;4.27;;;3.60;;
42598;SDS011;28225;42.714;23.860;2024-02-23T01:01:27;3.88;;;3.55;;
42598;SDS011;28225;42.714;23.860;2024-02-23T01:01:43;4.00;;;3.70;;
42598;SDS011;28225;42.714;23.860;2024-02-23T01:01:59;4.23;;;3.83;;
42598;SDS011;28225;42.714;23.860;2024-02-23T01:02:14;4.32;;;3.92;;
42598;SDS011;28225;42.714;23.860;2024-02-23T01:02:30;4.67;;;4.13;;
42598;SDS011;28225;42.714;23.860;2024-02-23T01:02:46;4.72;;;4.20;;
42598;SDS011;28225;42.714;23.860;2024-02-23T01:03:01;5.45;;;4.35;;
42598;SDS011;28225;42.714;23.860;2024-02-23T01:03:16;5.00;;;4.33;;
42598;SDS011;28225;42.714;23.860;2024-02-23T01:03:32;4.50;;;4.10;;
42598;SDS011;28225;42.714;23.860;2024-02-23T01:03:47;4.57;;;4.18;;
42598;SDS011;28225;42.714;23.860;2024-02-23T01:04:03;4.80;;;4.30;;
42598;SDS011;28225;42.714;23.860;2024-02-23T01:04:18;4.63;;;4.10;;
42598;SDS011;28225;42.714;23.860;2024-02-23T01:04:34;4.30;;;3.90;;
42598;SDS011;28225;42.714;23.860;2024-02-23T01:04:49;4.47;;;4.07;;
42598;SDS011;28225;42.714;23.860;2024-02-23T01:05:05;4.70;;;4.30;;
42598;SDS011;28225;42.714;23.860;2024-02-23T01:05:21;4.47;;;4.07;;
42598;SDS011;28225;42.714;23.860;2024-02-23T01:05:36;4.30;;;3.90;;
42598;SDS011;28225;42.714;23.860;2024-02-23T01:05:53;4.65;;;4.13;;
42598;SDS011;28225;42.714;23.860;2024-02-23T01:06:08;4.95;;;3.97;;
42598;SDS011;28225;42.714;23.860;2024-02-23T01:06:24;4.10;;;3.70;;
42598;SDS011;28225;42.714;23.860;2024-02-23T01:06:40;4.18;;;3.78;;
42598;SDS011;28225;42.714;23.860;2024-02-23T01:06:55;4.35;;;3.80;;
42598;SDS011;28225;42.714;23.860;2024-02-23T01:07:11;4.90;;;3.53;;
42598;SDS011;28225;42.714;23.860;2024-02-23T01:07:26;4.50;;;3.50;;
42598;SDS011;28225;42.714;23.860;2024-02-23T01:07:41;4.13;;;3.72;;
42598;SDS011;28225;42.714;23.860;2024-02-23T01:07:57;5.40;;;4.03;;
42598;SDS011;28225;42.714;23.860;2024-02-23T01:08:12;5.88;;;4.38;;
42598;SDS011;28225;42.714;23.860;2024-02-23T01:08:28;5.10;;;4.57;;
42598;SDS011;28225;42.714;23.860;2024-02-23T01:08:43;5.05;;;4.55;;
42598;SDS011;28225;42.714;23.860;2024-02-23T01:08:59;5.10;;;4.50;;
42598;SDS011;28225;42.714;23.860;2024-02-23T01:09:14;5.07;;;4.40;;
42598;SDS011;28225;42.714;23.860;2024-02-23T01:09:31;4.75;;;4.25;;
42598;SDS011;28225;42.714;23.860;2024-02-23T01:09:47;5.47;;;4.40;;
42598;SDS011;28225;42.714;23.860;2024-02-23T01:10:02;5.45;;;4.22;;
42598;SDS011;28225;42.714;23.860;2024-02-23T01:10:18;4.90;;;3.85;;
42598;SDS011;28225;42.714;23.860;2024-02-23T01:10:34;4.57;;;4.00;;
42598;SDS011;28225;42.714;23.860;2024-02-23T01:10:50;4.45;;;4.05;;
42598;SDS011;28225;42.714;23.860;2024-02-23T01:11:05;4.30;;;3.90;;
42598;SDS011;28225;42.714;23.860;2024-02-23T01:11:20;3.60;;;3.30;;
42598;SDS011;28225;42.714;23.860;2024-02-23T01:11:36;3.43;;;3.13;;
42598;SDS011;28225;42.714;23.860;2024-02-23T01:11:51;3.42;;;3.13;;
42598;SDS011;28225;42.714;23.860;2024-02-23T01:12:07;3.50;;;3.20;;
42598;SDS011;28225;42.714;23.860;2024-02-23T01:12:22;3.92;;;3.30;;
42598;SDS011;28225;42.714;23.860;2024-02-23T01:12:38;3.90;;;3.47;;
42598;SDS011;28225;42.714;23.860;2024-02-23T01:12:53;4.27;;;3.87;;
42598;SDS011;28225;42.714;23.860;2024-02-23T01:13:08;4.70;;;4.10;;
42598;SDS011;28225;42.714;23.860;2024-02-23T01:13:24;4.73;;;4.23;;
42598;SDS011;28225;42.714;23.860;2024-02-23T01:13:39;4.80;;;4.30;;
42598;SDS011;28225;42.714;23.860;2024-02-23T01:13:55;4.47;;;3.90;;
42598;SDS011;28225;42.714;23.860;2024-02-23T01:14:10;4.07;;;3.45;;
42598;SDS011;28225;42.714;23.860;2024-02-23T01:14:26;4.10;;;3.50;;
42598;SDS011;28225;42.714;23.860;2024-02-23T01:14:41;3.80;;;3.50;;
42598;SDS011;28225;42.714;23.860;2024-02-23T01:14:57;3.97;;;3.60;;
42598;SDS011;28225;42.714;23.860;2024-02-23T01:15:12;4.63;;;4.07;;
42598;SDS011;28225;42.714;23.860;2024-02-23T01:15:27;4.72;;;4.22;;
42598;SDS011;28225;42.714;23.860;2024-02-23T01:15:43;4.50;;;4.00;;
42598;SDS011;28225;42.714;23.860;2024-02-23T01:16:00;4.57;;;3.88;;
42598;SDS011;28225;42.714;23.860;2024-02-23T01:16:16;4.37;;;3.73;;
42598;SDS011;28225;42.714;23.860;2024-02-23T01:16:31;4.80;;;4.15;;
42598;SDS011;28225;42.714;23.860;2024-02-23T01:16:47;5.60;;;5.00;;
42598;SDS011;28225;42.714;23.860;2024-02-23T01:17:03;5.72;;;5.10;;
42598;SDS011;28225;42.714;23.860;2024-02-23T01:17:18;5.60;;;4.77;;
42598;SDS011;28225;42.714;23.860;2024-02-23T01:17:33;5.70;;;4.90;;
42598;SDS011;28225;42.714;23.860;2024-02-23T01:17:49;6.03;;;5.27;;
42598;SDS011;28225;42.714;23.860;2024-02-23T01:18:04;6.60;;;5.47;;
42598;SDS011;28225;42.714;23.860;2024-02-23T01:18:22;7.57;;;5.85;;
42598;SDS011;28225;42.714;23.860;2024-02-23T01:18:38;7.27;;;5.63;;
42598;SDS011;28225;42.714;23.860;2024-02-23T01:18:53;7.53;;;5.70;;
42598;SDS011;28225;42.714;23.860;2024-02-23T01:19:09;7.30;;;5.90;;
42598;SDS011;28225;42.714;23.860;2024-02-23T01:19:24;6.27;;;5.33;;
42598;SDS011;28225;42.714;23.860;2024-02-23T01:19:40;6.03;;;5.22;;
42598;SDS011;28225;42.714;23.860;2024-02-23T01:19:56;6.38;;;5.50;;
42598;SDS011;28225;42.714;23.860;2024-02-23T01:20:12;6.60;;;5.30;;
42598;SDS011;28225;42.714;23.860;2024-02-23T01:20:28;7.45;;;5.07;;
42598;SDS011;28225;42.714;23.860;2024-02-23T01:20:43;7.50;;;5.15;;
42598;SDS011;28225;42.714;23.860;2024-02-23T01:20:59;7.40;;;5.53;;
42598;SDS011;28225;42.714;23.860;2024-02-23T01:21:14;8.03;;;5.97;;
42598;SDS011;28225;42.714;23.860;2024-02-23T01:21:30;6.90;;;5.72;;
42598;SDS011;28225;42.714;23.860;2024-02-23T01:21:46;6.03;;;5.20;;
42598;SDS011;28225;42.714;23.860;2024-02-23T01:22:02;6.30;;;4.97;;
42598;SDS011;28225;42.714;23.860;2024-02-23T01:22:17;6.80;;;5.23;;
42598;SDS011;28225;42.714;23.860;2024-02-23T01:22:33;6.85;;;5.57;;
42598;SDS011;28225;42.714;23.860;2024-02-23T01:22:48;7.40;;;5.83;;
42598;SDS011;28225;42.714;23.860;2024-02-23T01:23:03;7.75;;;5.70;;
42598;SDS011;28225;42.714;23.860;2024-02-23T01:23:19;7.40;;;5.43;;
42598;SDS011;28225;42.714;23.860;2024-02-23T01:23:34;6.43;;;5.25;;
42598;SDS011;28225;42.714;23.860;2024-02-23T01:23:50;6.53;;;5.30;;
42598;SDS011;28225;42.714;23.860;2024-02-23T01:24:05;7.30;;;5.67;;
42598;SDS011;28225;42.714;23.860;2024-02-23T01:24:21;8.73;;;5.93;;
42598;SDS011;28225;42.714;23.860;2024-02-23T01:24:36;10.07;;;6.73;;
42598;SDS011;28225;42.714;23.860;2024-02-23T01:24:51;9.95;;;7.05;;
42598;SDS011;28225;42.714;23.860;2024-02-23T01:25:07;9.47;;;6.73;;
42598;SDS011;28225;42.714;23.860;2024-02-23T01:25:23;9.77;;;6.90;;
42598;SDS011;28225;42.714;23.860;2024-02-23T01:25:38;11.93;;;7.60;;
42598;SDS011;28225;42.714;23.860;2024-02-23T01:25:54;13.10;;;8.02;;
42598;SDS011;28225;42.714;23.860;2024-02-23T01:26:09;11.37;;;7.97;;
42598;SDS011;28225;42.714;23.860;2024-02-23T01:26:25;11.32;;;8.15;;
42598;SDS011;28225;42.714;23.860;2024-02-23T01:26:40;11.37;;;8.10;;
42598;SDS011;28225;42.714;23.860;2024-02-23T01:26:56;11.57;;;8.13;;
42598;SDS011;28225;42.714;23.860;2024-02-23T01:27:12;10.35;;;7.72;;
42598;SDS011;28225;42.714;23.860;2024-02-23T01:27:28;10.00;;;7.13;;
42598;SDS011;28225;42.714;23.860;2024-02-23T01:27:43;9.43;;;6.77;;
42598;SDS011;28225;42.714;23.860;2024-02-23T01:28:02;9.60;;;7.05;;
42598;SDS011;28225;42.714;23.860;2024-02-23T01:28:18;10.10;;;7.43;;
42598;SDS011;28225;42.714;23.860;2024-02-23T01:28:33;8.90;;;6.60;;
42598;SDS011;28225;42.714;23.860;2024-02-23T01:28:49;7.40;;;5.47;;
42598;SDS011;28225;42.714;23.860;2024-02-23T01:29:04;6.13;;;4.77;;
42598;SDS011;28225;42.714;23.860;2024-02-23T01:29:20;4.80;;;4.22;;
42598;SDS011;28225;42.714;23.860;2024-02-23T01:29:37;4.45;;;4.05;;
42598;SDS011;28225;42.714;23.860;2024-02-23T01:29:52;5.03;;;4.40;;
42598;SDS011;28225;42.714;23.860;2024-02-23T01:30:08;6.75;;;4.80;;
42598;SDS011;28225;42.714;23.860;2024-02-23T01:30:23;6.57;;;4.80;;
42598;SDS011;28225;42.714;23.860;2024-02-23T01:30:39;6.35;;;4.93;;
42598;SDS011;28225;42.714;23.860;2024-02-23T01:30:54;6.60;;;5.03;;
42598;SDS011;28225;42.714;23.860;2024-02-23T01:31:11;5.93;;;5.10;;
42598;SDS011;28225;42.714;23.860;2024-02-23T01:31:26;6.13;;;4.97;;
42598;SDS011;28225;42.714;23.860;2024-02-23T01:31:42;6.75;;;5.18;;
42598;SDS011;28225;42.714;23.860;2024-02-23T01:31:57;6.33;;;5.20;;
42598;SDS011;28225;42.714;23.860;2024-02-23T01:32:13;6.22;;;5.13;;
42598;SDS011;28225;42.714;23.860;2024-02-23T01:32:29;5.95;;;5.10;;
42598;SDS011;28225;42.714;23.860;2024-02-23T01:32:45;5.17;;;4.67;;
42598;SDS011;28225;42.714;23.860;2024-02-23T01:33:01;6.22;;;4.97;;